Terminal Aerodrome Forecast
Issued by NWS

Home | Current Version | Previous Version | Text Only | Print | Product List | Glossary On
Versions: 1 2 3 4 5 6 7 8 9 10 11 12 13 14 15 16 17 18
000
FTUS46 KLOX 161700
TAFSBA
TAF
KSBA 161738Z 1618/1718 16005KT P6SM BKN016
     FM162100 21007KT P6SM SKC
     FM170400 VRB03KT P6SM SKC
     FM171000 VRB03KT 4SM BR OVC009
     FM171300 08006KT P6SM OVC013=

USA.gov is the U.S. government's official web portal to all federal, state and local government web resources and services.